sensor_id;sensor_type;location;lat;lon;timestamp;P1;durP1;ratioP1;P2;durP2;ratioP2
65533;SDS011;53640;55.838;37.184;2023-11-18T00:00:30;10.15;;;5.55;;
65533;SDS011;53640;55.838;37.184;2023-11-18T00:02:58;8.32;;;4.60;;
65533;SDS011;53640;55.838;37.184;2023-11-18T00:05:25;11.25;;;5.53;;
65533;SDS011;53640;55.838;37.184;2023-11-18T00:07:52;10.70;;;5.07;;
65533;SDS011;53640;55.838;37.184;2023-11-18T00:10:18;12.48;;;5.25;;
65533;SDS011;53640;55.838;37.184;2023-11-18T00:12:45;10.70;;;4.60;;
65533;SDS011;53640;55.838;37.184;2023-11-18T00:15:13;14.45;;;5.15;;
65533;SDS011;53640;55.838;37.184;2023-11-18T00:17:39;11.65;;;4.93;;
65533;SDS011;53640;55.838;37.184;2023-11-18T00:20:06;11.85;;;4.93;;
65533;SDS011;53640;55.838;37.184;2023-11-18T00:22:39;13.07;;;5.40;;
65533;SDS011;53640;55.838;37.184;2023-11-18T00:25:07;15.00;;;6.05;;
65533;SDS011;53640;55.838;37.184;2023-11-18T00:27:35;12.82;;;4.75;;
65533;SDS011;53640;55.838;37.184;2023-11-18T00:30:03;13.02;;;5.63;;
65533;SDS011;53640;55.838;37.184;2023-11-18T00:32:33;11.55;;;5.50;;
65533;SDS011;53640;55.838;37.184;2023-11-18T00:35:00;10.45;;;5.05;;
65533;SDS011;53640;55.838;37.184;2023-11-18T00:37:30;13.95;;;5.78;;
65533;SDS011;53640;55.838;37.184;2023-11-18T00:39:57;10.07;;;5.05;;
65533;SDS011;53640;55.838;37.184;2023-11-18T00:42:23;8.23;;;4.20;;
65533;SDS011;53640;55.838;37.184;2023-11-18T00:44:52;10.20;;;4.68;;
65533;SDS011;53640;55.838;37.184;2023-11-18T00:47:21;13.98;;;5.50;;
65533;SDS011;53640;55.838;37.184;2023-11-18T00:49:49;8.63;;;4.53;;
65533;SDS011;53640;55.838;37.184;2023-11-18T00:52:17;8.32;;;4.32;;
65533;SDS011;53640;55.838;37.184;2023-11-18T00:54:47;10.23;;;5.20;;
65533;SDS011;53640;55.838;37.184;2023-11-18T00:57:13;12.23;;;4.88;;
65533;SDS011;53640;55.838;37.184;2023-11-18T00:59:41;10.63;;;5.18;;
65533;SDS011;53640;55.838;37.184;2023-11-18T01:02:11;12.95;;;5.53;;
65533;SDS011;53640;55.838;37.184;2023-11-18T01:04:38;13.20;;;4.90;;
65533;SDS011;53640;55.838;37.184;2023-11-18T01:07:05;9.10;;;4.68;;
65533;SDS011;53640;55.838;37.184;2023-11-18T01:09:32;9.65;;;5.18;;
65533;SDS011;53640;55.838;37.184;2023-11-18T01:12:04;11.25;;;5.07;;
65533;SDS011;53640;55.838;37.184;2023-11-18T01:14:33;8.82;;;4.15;;
65533;SDS011;53640;55.838;37.184;2023-11-18T01:17:00;11.38;;;4.35;;
65533;SDS011;53640;55.838;37.184;2023-11-18T01:19:27;12.15;;;5.00;;
65533;SDS011;53640;55.838;37.184;2023-11-18T01:21:56;12.60;;;4.43;;
65533;SDS011;53640;55.838;37.184;2023-11-18T01:24:23;7.88;;;4.03;;
65533;SDS011;53640;55.838;37.184;2023-11-18T01:26:50;9.77;;;4.07;;
65533;SDS011;53640;55.838;37.184;2023-11-18T01:29:17;8.70;;;3.88;;
65533;SDS011;53640;55.838;37.184;2023-11-18T01:31:43;8.00;;;3.80;;
65533;SDS011;53640;55.838;37.184;2023-11-18T01:34:10;12.20;;;4.28;;
65533;SDS011;53640;55.838;37.184;2023-11-18T01:36:38;9.20;;;3.83;;
65533;SDS011;53640;55.838;37.184;2023-11-18T01:39:04;9.90;;;4.30;;
65533;SDS011;53640;55.838;37.184;2023-11-18T01:41:32;9.15;;;3.92;;
65533;SDS011;53640;55.838;37.184;2023-11-18T01:43:59;18.75;;;5.07;;
65533;SDS011;53640;55.838;37.184;2023-11-18T01:46:27;8.25;;;3.88;;
65533;SDS011;53640;55.838;37.184;2023-11-18T01:48:56;11.80;;;4.18;;
65533;SDS011;53640;55.838;37.184;2023-11-18T01:51:25;8.63;;;3.70;;
65533;SDS011;53640;55.838;37.184;2023-11-18T01:53:53;9.23;;;4.00;;
65533;SDS011;53640;55.838;37.184;2023-11-18T01:56:22;12.38;;;4.22;;
65533;SDS011;53640;55.838;37.184;2023-11-18T01:58:51;7.57;;;4.18;;
65533;SDS011;53640;55.838;37.184;2023-11-18T02:01:19;10.07;;;4.43;;
65533;SDS011;53640;55.838;37.184;2023-11-18T02:03:46;8.70;;;4.18;;
65533;SDS011;53640;55.838;37.184;2023-11-18T02:06:13;9.85;;;4.88;;
65533;SDS011;53640;55.838;37.184;2023-11-18T02:08:48;8.27;;;4.38;;
65533;SDS011;53640;55.838;37.184;2023-11-18T02:11:28;8.88;;;4.10;;
65533;SDS011;53640;55.838;37.184;2023-11-18T02:16:31;9.07;;;4.45;;
65533;SDS011;53640;55.838;37.184;2023-11-18T02:19:00;8.25;;;4.40;;
65533;SDS011;53640;55.838;37.184;2023-11-18T02:21:32;9.60;;;4.20;;
65533;SDS011;53640;55.838;37.184;2023-11-18T02:24:00;8.55;;;4.10;;
65533;SDS011;53640;55.838;37.184;2023-11-18T02:26:27;10.93;;;3.75;;
65533;SDS011;53640;55.838;37.184;2023-11-18T02:28:54;7.68;;;4.13;;
65533;SDS011;53640;55.838;37.184;2023-11-18T02:31:22;13.85;;;4.95;;
65533;SDS011;53640;55.838;37.184;2023-11-18T02:34:01;9.70;;;4.40;;
65533;SDS011;53640;55.838;37.184;2023-11-18T02:36:34;8.30;;;4.53;;
65533;SDS011;53640;55.838;37.184;2023-11-18T02:39:08;9.82;;;4.43;;
65533;SDS011;53640;55.838;37.184;2023-11-18T02:41:44;8.45;;;4.25;;
65533;SDS011;53640;55.838;37.184;2023-11-18T02:44:14;18.55;;;4.82;;
65533;SDS011;53640;55.838;37.184;2023-11-18T02:46:44;10.07;;;4.95;;
65533;SDS011;53640;55.838;37.184;2023-11-18T02:49:11;11.23;;;5.05;;
65533;SDS011;53640;55.838;37.184;2023-11-18T02:51:39;8.52;;;4.82;;
65533;SDS011;53640;55.838;37.184;2023-11-18T02:54:06;8.27;;;4.57;;
65533;SDS011;53640;55.838;37.184;2023-11-18T02:56:37;11.25;;;4.75;;
65533;SDS011;53640;55.838;37.184;2023-11-18T02:59:04;10.63;;;4.40;;
65533;SDS011;53640;55.838;37.184;2023-11-18T03:01:34;10.20;;;4.68;;
65533;SDS011;53640;55.838;37.184;2023-11-18T03:04:00;10.60;;;4.53;;
65533;SDS011;53640;55.838;37.184;2023-11-18T03:06:29;11.05;;;4.85;;
65533;SDS011;53640;55.838;37.184;2023-11-18T03:08:56;7.20;;;4.38;;
65533;SDS011;53640;55.838;37.184;2023-11-18T03:11:23;7.82;;;4.30;;
65533;SDS011;53640;55.838;37.184;2023-11-18T03:13:49;9.88;;;4.32;;
65533;SDS011;53640;55.838;37.184;2023-11-18T03:16:16;7.93;;;4.20;;
65533;SDS011;53640;55.838;37.184;2023-11-18T03:18:43;11.50;;;5.03;;
65533;SDS011;53640;55.838;37.184;2023-11-18T03:21:11;10.73;;;4.80;;
65533;SDS011;53640;55.838;37.184;2023-11-18T03:23:39;11.07;;;4.95;;
65533;SDS011;53640;55.838;37.184;2023-11-18T03:26:09;11.90;;;5.05;;
65533;SDS011;53640;55.838;37.184;2023-11-18T03:28:39;11.10;;;4.55;;
65533;SDS011;53640;55.838;37.184;2023-11-18T03:31:07;16.63;;;5.32;;
65533;SDS011;53640;55.838;37.184;2023-11-18T03:33:33;12.52;;;5.63;;
65533;SDS011;53640;55.838;37.184;2023-11-18T03:36:01;10.98;;;5.22;;
65533;SDS011;53640;55.838;37.184;2023-11-18T03:38:31;8.00;;;4.22;;
65533;SDS011;53640;55.838;37.184;2023-11-18T03:40:57;11.65;;;4.53;;
65533;SDS011;53640;55.838;37.184;2023-11-18T03:43:24;9.38;;;4.90;;
65533;SDS011;53640;55.838;37.184;2023-11-18T03:45:50;10.35;;;4.07;;
65533;SDS011;53640;55.838;37.184;2023-11-18T03:48:22;12.53;;;4.33;;
65533;SDS011;53640;55.838;37.184;2023-11-18T03:50:51;10.07;;;4.30;;
65533;SDS011;53640;55.838;37.184;2023-11-18T03:53:19;7.47;;;4.00;;
65533;SDS011;53640;55.838;37.184;2023-11-18T03:55:46;9.00;;;4.38;;
65533;SDS011;53640;55.838;37.184;2023-11-18T03:58:13;10.35;;;5.00;;
65533;SDS011;53640;55.838;37.184;2023-11-18T04:00:39;10.55;;;4.53;;
65533;SDS011;53640;55.838;37.184;2023-11-18T04:03:05;16.30;;;4.97;;
65533;SDS011;53640;55.838;37.184;2023-11-18T04:05:33;11.65;;;4.43;;
65533;SDS011;53640;55.838;37.184;2023-11-18T04:08:01;9.30;;;4.53;;
65533;SDS011;53640;55.838;37.184;2023-11-18T04:10:27;10.38;;;4.15;;
65533;SDS011;53640;55.838;37.184;2023-11-18T04:12:54;12.43;;;4.50;;
65533;SDS011;53640;55.838;37.184;2023-11-18T04:15:24;8.07;;;4.47;;
65533;SDS011;53640;55.838;37.184;2023-11-18T04:17:51;8.38;;;4.28;;
65533;SDS011;53640;55.838;37.184;2023-11-18T04:20:18;6.82;;;4.03;;
65533;SDS011;53640;55.838;37.184;2023-11-18T04:22:49;19.00;;;6.10;;
65533;SDS011;53640;55.838;37.184;2023-11-18T04:25:15;10.07;;;5.15;;
65533;SDS011;53640;55.838;37.184;2023-11-18T04:27:42;12.48;;;5.13;;
65533;SDS011;53640;55.838;37.184;2023-11-18T04:30:11;9.98;;;4.68;;
65533;SDS011;53640;55.838;37.184;2023-11-18T04:32:40;17.88;;;5.95;;
65533;SDS011;53640;55.838;37.184;2023-11-18T04:35:09;12.38;;;5.20;;
65533;SDS011;53640;55.838;37.184;2023-11-18T04:37:37;10.77;;;4.75;;
65533;SDS011;53640;55.838;37.184;2023-11-18T04:40:08;9.30;;;4.10;;
65533;SDS011;53640;55.838;37.184;2023-11-18T04:42:41;13.32;;;4.53;;
65533;SDS011;53640;55.838;37.184;2023-11-18T04:45:07;10.65;;;5.00;;
65533;SDS011;53640;55.838;37.184;2023-11-18T04:47:36;13.63;;;5.07;;
65533;SDS011;53640;55.838;37.184;2023-11-18T04:50:03;8.45;;;4.47;;
65533;SDS011;53640;55.838;37.184;2023-11-18T04:52:30;15.23;;;5.18;;
65533;SDS011;53640;55.838;37.184;2023-11-18T04:55:00;10.23;;;4.72;;
65533;SDS011;53640;55.838;37.184;2023-11-18T04:57:27;15.40;;;5.95;;
65533;SDS011;53640;55.838;37.184;2023-11-18T04:59:54;12.25;;;5.65;;
65533;SDS011;53640;55.838;37.184;2023-11-18T05:02:20;9.90;;;4.93;;
65533;SDS011;53640;55.838;37.184;2023-11-18T05:04:48;10.57;;;4.72;;
65533;SDS011;53640;55.838;37.184;2023-11-18T05:07:15;10.13;;;4.95;;
65533;SDS011;53640;55.838;37.184;2023-11-18T05:09:43;11.43;;;5.45;;
65533;SDS011;53640;55.838;37.184;2023-11-18T05:12:09;12.07;;;5.50;;
65533;SDS011;53640;55.838;37.184;2023-11-18T05:14:36;17.95;;;5.90;;
65533;SDS011;53640;55.838;37.184;2023-11-18T05:17:04;13.90;;;5.60;;
65533;SDS011;53640;55.838;37.184;2023-11-18T05:19:30;16.38;;;5.95;;
65533;SDS011;53640;55.838;37.184;2023-11-18T05:21:57;15.63;;;5.95;;
65533;SDS011;53640;55.838;37.184;2023-11-18T05:24:26;11.32;;;5.65;;
65533;SDS011;53640;55.838;37.184;2023-11-18T05:26:53;12.82;;;5.15;;
65533;SDS011;53640;55.838;37.184;2023-11-18T05:29:19;20.50;;;5.95;;
65533;SDS011;53640;55.838;37.184;2023-11-18T05:31:47;17.50;;;5.65;;
65533;SDS011;53640;55.838;37.184;2023-11-18T05:34:14;12.18;;;5.43;;
65533;SDS011;53640;55.838;37.184;2023-11-18T05:36:42;19.60;;;5.57;;
65533;SDS011;53640;55.838;37.184;2023-11-18T05:39:08;13.10;;;5.32;;
65533;SDS011;53640;55.838;37.184;2023-11-18T05:41:35;15.65;;;6.03;;
65533;SDS011;53640;55.838;37.184;2023-11-18T05:44:05;11.88;;;5.57;;
65533;SDS011;53640;55.838;37.184;2023-11-18T05:46:34;17.67;;;6.63;;
65533;SDS011;53640;55.838;37.184;2023-11-18T05:49:01;11.45;;;5.97;;
65533;SDS011;53640;55.838;37.184;2023-11-18T05:51:34;18.40;;;6.22;;
65533;SDS011;53640;55.838;37.184;2023-11-18T05:54:00;19.10;;;5.65;;
65533;SDS011;53640;55.838;37.184;2023-11-18T05:56:27;18.90;;;5.97;;
65533;SDS011;53640;55.838;37.184;2023-11-18T05:58:53;15.73;;;5.22;;
65533;SDS011;53640;55.838;37.184;2023-11-18T06:01:20;11.90;;;5.50;;
65533;SDS011;53640;55.838;37.184;2023-11-18T06:03:46;14.32;;;6.03;;
65533;SDS011;53640;55.838;37.184;2023-11-18T06:06:14;19.27;;;7.22;;
65533;SDS011;53640;55.838;37.184;2023-11-18T06:08:43;14.43;;;6.57;;
65533;SDS011;53640;55.838;37.184;2023-11-18T06:11:10;24.60;;;6.53;;
65533;SDS011;53640;55.838;37.184;2023-11-18T06:13:48;15.25;;;6.10;;
65533;SDS011;53640;55.838;37.184;2023-11-18T06:16:17;17.05;;;6.03;;
65533;SDS011;53640;55.838;37.184;2023-11-18T06:18:53;13.02;;;6.03;;
65533;SDS011;53640;55.838;37.184;2023-11-18T06:21:21;24.70;;;7.53;;
65533;SDS011;53640;55.838;37.184;2023-11-18T06:23:56;29.23;;;6.80;;
65533;SDS011;53640;55.838;37.184;2023-11-18T06:26:23;22.95;;;6.70;;
65533;SDS011;53640;55.838;37.184;2023-11-18T06:28:53;21.13;;;7.30;;
65533;SDS011;53640;55.838;37.184;2023-11-18T06:31:20;13.38;;;7.22;;
65533;SDS011;53640;55.838;37.184;2023-11-18T06:33:47;16.60;;;6.50;;
65533;SDS011;53640;55.838;37.184;2023-11-18T06:38:44;17.65;;;6.25;;
65533;SDS011;53640;55.838;37.184;2023-11-18T06:41:12;16.48;;;6.40;;
65533;SDS011;53640;55.838;37.184;2023-11-18T06:43:41;20.60;;;6.70;;
65533;SDS011;53640;55.838;37.184;2023-11-18T06:46:33;14.73;;;6.82;;
65533;SDS011;53640;55.838;37.184;2023-11-18T06:49:02;18.40;;;7.10;;
65533;SDS011;53640;55.838;37.184;2023-11-18T06:51:31;15.98;;;7.28;;
65533;SDS011;53640;55.838;37.184;2023-11-18T06:54:01;21.40;;;8.27;;
65533;SDS011;53640;55.838;37.184;2023-11-18T06:56:35;20.77;;;7.68;;
65533;SDS011;53640;55.838;37.184;2023-11-18T06:59:06;16.35;;;7.70;;
65533;SDS011;53640;55.838;37.184;2023-11-18T07:01:34;18.88;;;7.63;;
65533;SDS011;53640;55.838;37.184;2023-11-18T07:04:01;16.35;;;7.72;;
65533;SDS011;53640;55.838;37.184;2023-11-18T07:06:30;24.58;;;9.95;;
65533;SDS011;53640;55.838;37.184;2023-11-18T07:08:57;22.25;;;9.13;;
65533;SDS011;53640;55.838;37.184;2023-11-18T07:11:26;30.85;;;10.32;;
65533;SDS011;53640;55.838;37.184;2023-11-18T07:13:55;22.33;;;10.90;;
65533;SDS011;53640;55.838;37.184;2023-11-18T07:16:25;23.98;;;10.98;;
65533;SDS011;53640;55.838;37.184;2023-11-18T07:18:52;23.50;;;10.55;;
65533;SDS011;53640;55.838;37.184;2023-11-18T07:21:18;24.40;;;10.02;;
65533;SDS011;53640;55.838;37.184;2023-11-18T07:23:46;41.92;;;9.65;;
65533;SDS011;53640;55.838;37.184;2023-11-18T07:26:16;18.90;;;8.70;;
65533;SDS011;53640;55.838;37.184;2023-11-18T07:28:45;20.25;;;9.25;;
65533;SDS011;53640;55.838;37.184;2023-11-18T07:31:11;18.42;;;9.63;;
65533;SDS011;53640;55.838;37.184;2023-11-18T07:33:40;23.33;;;8.45;;
65533;SDS011;53640;55.838;37.184;2023-11-18T07:36:07;24.23;;;8.13;;
65533;SDS011;53640;55.838;37.184;2023-11-18T07:38:37;25.73;;;8.77;;
65533;SDS011;53640;55.838;37.184;2023-11-18T07:41:03;26.73;;;8.55;;
65533;SDS011;53640;55.838;37.184;2023-11-18T07:43:30;32.72;;;8.50;;
65533;SDS011;53640;55.838;37.184;2023-11-18T07:45:59;20.98;;;8.50;;
65533;SDS011;53640;55.838;37.184;2023-11-18T07:48:25;22.98;;;8.52;;
65533;SDS011;53640;55.838;37.184;2023-11-18T07:50:52;22.00;;;8.60;;
65533;SDS011;53640;55.838;37.184;2023-11-18T07:53:18;21.80;;;8.85;;
65533;SDS011;53640;55.838;37.184;2023-11-18T07:55:45;30.08;;;9.88;;
65533;SDS011;53640;55.838;37.184;2023-11-18T07:58:20;23.23;;;11.25;;
65533;SDS011;53640;55.838;37.184;2023-11-18T08:00:50;40.90;;;11.82;;
65533;SDS011;53640;55.838;37.184;2023-11-18T08:03:17;28.98;;;9.40;;
65533;SDS011;53640;55.838;37.184;2023-11-18T08:05:44;31.67;;;10.27;;
65533;SDS011;53640;55.838;37.184;2023-11-18T08:08:12;19.17;;;8.00;;
65533;SDS011;53640;55.838;37.184;2023-11-18T08:10:40;22.33;;;7.55;;
65533;SDS011;53640;55.838;37.184;2023-11-18T08:13:12;19.63;;;7.68;;
65533;SDS011;53640;55.838;37.184;2023-11-18T08:15:41;21.67;;;8.40;;
65533;SDS011;53640;55.838;37.184;2023-11-18T08:18:11;26.65;;;7.75;;
65533;SDS011;53640;55.838;37.184;2023-11-18T08:23:34;17.13;;;5.72;;
65533;SDS011;53640;55.838;37.184;2023-11-18T08:26:03;24.17;;;7.47;;
65533;SDS011;53640;55.838;37.184;2023-11-18T08:28:31;12.90;;;6.75;;
65533;SDS011;53640;55.838;37.184;2023-11-18T08:30:58;15.20;;;6.30;;
65533;SDS011;53640;55.838;37.184;2023-11-18T08:33:24;15.40;;;6.55;;
65533;SDS011;53640;55.838;37.184;2023-11-18T08:35:52;17.25;;;6.68;;
65533;SDS011;53640;55.838;37.184;2023-11-18T08:38:18;15.20;;;6.65;;
65533;SDS011;53640;55.838;37.184;2023-11-18T08:40:46;19.60;;;7.60;;
65533;SDS011;53640;55.838;37.184;2023-11-18T08:43:14;14.40;;;5.72;;
65533;SDS011;53640;55.838;37.184;2023-11-18T08:45:43;12.98;;;5.32;;
65533;SDS011;53640;55.838;37.184;2023-11-18T08:48:11;19.63;;;6.63;;
65533;SDS011;53640;55.838;37.184;2023-11-18T08:50:39;11.18;;;5.70;;
65533;SDS011;53640;55.838;37.184;2023-11-18T08:53:06;11.30;;;5.55;;
65533;SDS011;53640;55.838;37.184;2023-11-18T08:55:35;11.63;;;5.63;;
65533;SDS011;53640;55.838;37.184;2023-11-18T08:58:17;12.90;;;6.05;;
65533;SDS011;53640;55.838;37.184;2023-11-18T09:00:50;13.65;;;5.93;;
65533;SDS011;53640;55.838;37.184;2023-11-18T09:03:22;13.73;;;6.82;;
65533;SDS011;53640;55.838;37.184;2023-11-18T09:06:05;14.20;;;6.40;;
65533;SDS011;53640;55.838;37.184;2023-11-18T09:08:44;23.35;;;6.32;;
65533;SDS011;53640;55.838;37.184;2023-11-18T09:11:12;14.73;;;5.72;;
65533;SDS011;53640;55.838;37.184;2023-11-18T09:13:43;19.45;;;5.97;;
65533;SDS011;53640;55.838;37.184;2023-11-18T09:16:15;23.92;;;8.20;;
65533;SDS011;53640;55.838;37.184;2023-11-18T09:18:43;11.15;;;4.95;;
65533;SDS011;53640;55.838;37.184;2023-11-18T09:21:11;8.73;;;4.68;;
65533;SDS011;53640;55.838;37.184;2023-11-18T09:23:41;10.90;;;5.57;;
65533;SDS011;53640;55.838;37.184;2023-11-18T09:26:08;14.88;;;5.88;;
65533;SDS011;53640;55.838;37.184;2023-11-18T09:28:36;9.43;;;5.57;;
65533;SDS011;53640;55.838;37.184;2023-11-18T09:31:04;12.57;;;5.80;;
65533;SDS011;53640;55.838;37.184;2023-11-18T09:33:32;14.10;;;5.80;;
65533;SDS011;53640;55.838;37.184;2023-11-18T09:36:01;10.98;;;6.07;;
65533;SDS011;53640;55.838;37.184;2023-11-18T09:38:40;11.40;;;5.97;;
65533;SDS011;53640;55.838;37.184;2023-11-18T09:41:08;12.85;;;5.65;;
65533;SDS011;53640;55.838;37.184;2023-11-18T09:43:39;9.02;;;4.15;;
65533;SDS011;53640;55.838;37.184;2023-11-18T09:46:14;10.77;;;3.92;;
65533;SDS011;53640;55.838;37.184;2023-11-18T09:48:46;7.85;;;4.18;;
65533;SDS011;53640;55.838;37.184;2023-11-18T09:51:15;10.88;;;4.10;;
65533;SDS011;53640;55.838;37.184;2023-11-18T10:01:50;7.03;;;3.13;;
65533;SDS011;53640;55.838;37.184;2023-11-18T10:04:23;9.40;;;3.80;;
65533;SDS011;53640;55.838;37.184;2023-11-18T10:09:25;7.60;;;3.70;;
65533;SDS011;53640;55.838;37.184;2023-11-18T10:12:03;14.55;;;4.22;;
65533;SDS011;53640;55.838;37.184;2023-11-18T10:17:22;9.93;;;4.38;;
65533;SDS011;53640;55.838;37.184;2023-11-18T10:19:54;17.52;;;5.07;;
65533;SDS011;53640;55.838;37.184;2023-11-18T10:22:38;10.27;;;4.45;;
65533;SDS011;53640;55.838;37.184;2023-11-18T10:25:06;9.02;;;4.25;;
65533;SDS011;53640;55.838;37.184;2023-11-18T10:27:34;12.43;;;4.63;;
65533;SDS011;53640;55.838;37.184;2023-11-18T10:30:05;12.63;;;4.50;;
65533;SDS011;53640;55.838;37.184;2023-11-18T10:32:59;14.65;;;4.90;;
65533;SDS011;53640;55.838;37.184;2023-11-18T10:35:36;30.50;;;5.85;;
65533;SDS011;53640;55.838;37.184;2023-11-18T10:38:03;12.75;;;4.78;;
65533;SDS011;53640;55.838;37.184;2023-11-18T10:40:33;12.70;;;4.45;;
65533;SDS011;53640;55.838;37.184;2023-11-18T10:43:03;15.25;;;5.55;;
65533;SDS011;53640;55.838;37.184;2023-11-18T10:45:36;15.27;;;5.00;;
65533;SDS011;53640;55.838;37.184;2023-11-18T10:48:07;12.25;;;4.80;;
65533;SDS011;53640;55.838;37.184;2023-11-18T10:50:34;16.58;;;5.60;;
65533;SDS011;53640;55.838;37.184;2023-11-18T10:53:02;13.57;;;5.75;;
65533;SDS011;53640;55.838;37.184;2023-11-18T10:55:37;33.22;;;6.25;;
65533;SDS011;53640;55.838;37.184;2023-11-18T10:58:06;18.20;;;5.75;;
65533;SDS011;53640;55.838;37.184;2023-11-18T11:00:51;12.30;;;5.28;;
65533;SDS011;53640;55.838;37.184;2023-11-18T11:03:27;21.50;;;5.40;;
65533;SDS011;53640;55.838;37.184;2023-11-18T11:05:59;10.93;;;4.85;;
65533;SDS011;53640;55.838;37.184;2023-11-18T11:08:25;16.20;;;5.45;;
65533;SDS011;53640;55.838;37.184;2023-11-18T11:10:53;13.20;;;4.97;;
65533;SDS011;53640;55.838;37.184;2023-11-18T11:13:32;13.90;;;5.65;;
65533;SDS011;53640;55.838;37.184;2023-11-18T11:15:59;17.77;;;5.20;;
65533;SDS011;53640;55.838;37.184;2023-11-18T11:18:32;13.00;;;5.57;;
65533;SDS011;53640;55.838;37.184;2023-11-18T11:23:44;13.55;;;5.10;;
65533;SDS011;53640;55.838;37.184;2023-11-18T11:34:49;9.52;;;4.68;;
65533;SDS011;53640;55.838;37.184;2023-11-18T11:37:19;10.82;;;4.88;;
65533;SDS011;53640;55.838;37.184;2023-11-18T11:39:50;20.05;;;5.10;;
65533;SDS011;53640;55.838;37.184;2023-11-18T11:42:20;11.55;;;5.50;;
65533;SDS011;53640;55.838;37.184;2023-11-18T11:44:49;14.20;;;5.38;;
65533;SDS011;53640;55.838;37.184;2023-11-18T11:47:20;11.23;;;5.30;;
65533;SDS011;53640;55.838;37.184;2023-11-18T11:49:57;10.25;;;5.38;;
65533;SDS011;53640;55.838;37.184;2023-11-18T11:53:07;14.10;;;4.78;;
65533;SDS011;53640;55.838;37.184;2023-11-18T11:55:52;16.90;;;6.47;;
65533;SDS011;53640;55.838;37.184;2023-11-18T11:58:33;16.52;;;5.90;;
65533;SDS011;53640;55.838;37.184;2023-11-18T12:01:24;15.80;;;6.25;;
65533;SDS011;53640;55.838;37.184;2023-11-18T12:04:15;27.20;;;5.82;;
65533;SDS011;53640;55.838;37.184;2023-11-18T12:06:47;14.30;;;5.78;;
65533;SDS011;53640;55.838;37.184;2023-11-18T12:09:19;21.52;;;5.95;;
65533;SDS011;53640;55.838;37.184;2023-11-18T12:11:47;18.55;;;6.32;;
65533;SDS011;53640;55.838;37.184;2023-11-18T12:14:16;20.60;;;6.20;;
65533;SDS011;53640;55.838;37.184;2023-11-18T12:19:41;9.60;;;5.82;;
65533;SDS011;53640;55.838;37.184;2023-11-18T12:22:19;16.40;;;5.65;;
65533;SDS011;53640;55.838;37.184;2023-11-18T12:33:10;17.83;;;6.53;;
65533;SDS011;53640;55.838;37.184;2023-11-18T12:41:07;17.88;;;7.00;;
65533;SDS011;53640;55.838;37.184;2023-11-18T12:43:47;19.23;;;6.95;;
65533;SDS011;53640;55.838;37.184;2023-11-18T12:49:16;14.10;;;6.55;;
65533;SDS011;53640;55.838;37.184;2023-11-18T12:51:46;18.77;;;8.05;;
65533;SDS011;53640;55.838;37.184;2023-11-18T12:54:14;27.73;;;7.50;;
65533;SDS011;53640;55.838;37.184;2023-11-18T12:56:48;25.88;;;7.78;;
65533;SDS011;53640;55.838;37.184;2023-11-18T12:59:17;11.73;;;6.93;;
65533;SDS011;53640;55.838;37.184;2023-11-18T13:01:44;18.70;;;7.15;;
65533;SDS011;53640;55.838;37.184;2023-11-18T13:04:19;13.52;;;6.05;;
65533;SDS011;53640;55.838;37.184;2023-11-18T13:06:47;15.13;;;6.47;;
65533;SDS011;53640;55.838;37.184;2023-11-18T13:09:14;12.55;;;6.57;;
65533;SDS011;53640;55.838;37.184;2023-11-18T13:11:55;10.75;;;5.88;;
65533;SDS011;53640;55.838;37.184;2023-11-18T13:14:23;24.25;;;7.03;;
65533;SDS011;53640;55.838;37.184;2023-11-18T13:16:55;15.40;;;7.93;;
65533;SDS011;53640;55.838;37.184;2023-11-18T13:19:24;18.98;;;9.45;;
65533;SDS011;53640;55.838;37.184;2023-11-18T13:21:56;14.85;;;7.10;;
65533;SDS011;53640;55.838;37.184;2023-11-18T13:24:27;20.25;;;7.35;;
65533;SDS011;53640;55.838;37.184;2023-11-18T13:26:55;18.05;;;8.20;;
65533;SDS011;53640;55.838;37.184;2023-11-18T13:29:23;27.10;;;11.20;;
65533;SDS011;53640;55.838;37.184;2023-11-18T13:31:51;22.77;;;9.93;;
65533;SDS011;53640;55.838;37.184;2023-11-18T13:34:19;27.20;;;9.63;;
65533;SDS011;53640;55.838;37.184;2023-11-18T13:36:47;24.60;;;8.95;;
65533;SDS011;53640;55.838;37.184;2023-11-18T13:39:17;18.98;;;8.75;;
65533;SDS011;53640;55.838;37.184;2023-11-18T13:41:48;23.58;;;7.85;;
65533;SDS011;53640;55.838;37.184;2023-11-18T13:44:36;20.15;;;8.40;;
65533;SDS011;53640;55.838;37.184;2023-11-18T13:47:09;21.45;;;8.80;;
65533;SDS011;53640;55.838;37.184;2023-11-18T13:49:39;20.95;;;8.02;;
65533;SDS011;53640;55.838;37.184;2023-11-18T13:52:06;23.20;;;8.98;;
65533;SDS011;53640;55.838;37.184;2023-11-18T13:54:37;22.08;;;8.80;;
65533;SDS011;53640;55.838;37.184;2023-11-18T13:57:06;19.92;;;8.27;;
65533;SDS011;53640;55.838;37.184;2023-11-18T13:59:35;17.83;;;7.85;;
65533;SDS011;53640;55.838;37.184;2023-11-18T14:02:03;21.45;;;8.85;;
65533;SDS011;53640;55.838;37.184;2023-11-18T14:04:31;18.48;;;8.50;;
65533;SDS011;53640;55.838;37.184;2023-11-18T14:07:00;18.75;;;9.25;;
65533;SDS011;53640;55.838;37.184;2023-11-18T14:09:33;22.23;;;9.55;;
65533;SDS011;53640;55.838;37.184;2023-11-18T14:12:07;24.00;;;8.60;;
65533;SDS011;53640;55.838;37.184;2023-11-18T14:14:35;23.40;;;9.55;;
65533;SDS011;53640;55.838;37.184;2023-11-18T14:17:06;21.20;;;9.77;;
65533;SDS011;53640;55.838;37.184;2023-11-18T14:19:37;21.85;;;9.52;;
65533;SDS011;53640;55.838;37.184;2023-11-18T14:22:22;20.73;;;9.27;;
65533;SDS011;53640;55.838;37.184;2023-11-18T14:26:04;31.20;;;10.68;;
65533;SDS011;53640;55.838;37.184;2023-11-18T14:28:39;20.65;;;9.93;;
65533;SDS011;53640;55.838;37.184;2023-11-18T14:31:06;20.55;;;9.25;;
65533;SDS011;53640;55.838;37.184;2023-11-18T14:33:45;17.52;;;8.82;;
65533;SDS011;53640;55.838;37.184;2023-11-18T14:36:15;20.75;;;9.13;;
65533;SDS011;53640;55.838;37.184;2023-11-18T14:38:42;20.05;;;9.82;;
65533;SDS011;53640;55.838;37.184;2023-11-18T14:41:08;24.98;;;9.75;;
65533;SDS011;53640;55.838;37.184;2023-11-18T14:43:40;21.63;;;8.75;;
65533;SDS011;53640;55.838;37.184;2023-11-18T14:46:11;21.13;;;8.70;;
65533;SDS011;53640;55.838;37.184;2023-11-18T14:48:42;20.45;;;8.82;;
65533;SDS011;53640;55.838;37.184;2023-11-18T14:51:08;25.23;;;10.50;;
65533;SDS011;53640;55.838;37.184;2023-11-18T14:53:48;24.80;;;11.13;;
65533;SDS011;53640;55.838;37.184;2023-11-18T14:56:18;24.55;;;10.98;;
65533;SDS011;53640;55.838;37.184;2023-11-18T14:58:56;31.08;;;10.75;;
65533;SDS011;53640;55.838;37.184;2023-11-18T15:02:14;24.88;;;9.48;;
65533;SDS011;53640;55.838;37.184;2023-11-18T15:06:07;32.53;;;10.85;;
65533;SDS011;53640;55.838;37.184;2023-11-18T15:08:45;30.67;;;10.70;;
65533;SDS011;53640;55.838;37.184;2023-11-18T15:11:23;33.97;;;10.88;;
65533;SDS011;53640;55.838;37.184;2023-11-18T15:13:56;29.30;;;11.05;;
65533;SDS011;53640;55.838;37.184;2023-11-18T15:20:12;23.97;;;11.10;;
65533;SDS011;53640;55.838;37.184;2023-11-18T15:23:16;25.85;;;11.43;;
65533;SDS011;53640;55.838;37.184;2023-11-18T15:25:58;32.35;;;11.52;;
65533;SDS011;53640;55.838;37.184;2023-11-18T15:28:48;33.53;;;11.43;;
65533;SDS011;53640;55.838;37.184;2023-11-18T15:31:43;26.92;;;11.48;;
65533;SDS011;53640;55.838;37.184;2023-11-18T15:34:12;25.00;;;11.02;;
65533;SDS011;53640;55.838;37.184;2023-11-18T15:36:40;28.73;;;11.75;;
65533;SDS011;53640;55.838;37.184;2023-11-18T15:39:09;33.03;;;12.82;;